Time;durP1;ratioP1;P1;durP2;ratioP2;P2;SDS_P1;SDS_P2;PMS_P1;PMS_P2;Temp;Humidity;BMP_temperature;BMP_pressure;BME280_temperature;BME280_humidity;BME280_pressure;Samples;Min_cycle;Max_cycle;Signal;HPM_P1;HPM_P2
2023/06/15 00:00:10;;;;;;;3.83;3.30;;;;;12.80;94147.00;;;;7393972;19;20147;-78
2023/06/15 00:02:45;;;;;;;5.50;3.35;;;;;12.80;94143.00;;;;7392528;19;20648;-77
2023/06/15 00:05:13;;;;;;;3.95;3.42;;;;;12.70;94144.00;;;;7393629;19;20149;-79
2023/06/15 00:07:47;;;;;;;3.75;3.33;;;;;12.60;94144.00;;;;7398379;19;20212;-77
2023/06/15 00:10:22;;;;;;;5.60;3.42;;;;;12.70;94143.00;;;;7394817;19;20145;-79
2023/06/15 00:12:56;;;;;;;5.63;3.42;;;;;12.70;94147.00;;;;7397954;19;20164;-76
2023/06/15 00:15:27;;;;;;;6.43;3.22;;;;;12.70;94145.00;;;;7395848;19;20145;-77
2023/06/15 00:18:01;;;;;;;5.07;3.90;;;;;12.60;94155.00;;;;7396355;19;20170;-76
2023/06/15 00:20:29;;;;;;;3.83;3.42;;;;;12.70;94151.00;;;;7397477;19;20607;-79
2023/06/15 00:23:04;;;;;;;5.93;3.85;;;;;12.70;94156.00;;;;7395344;19;20141;-78
2023/06/15 00:25:33;;;;;;;5.47;3.42;;;;;12.70;94158.00;;;;7397210;19;20604;-77
2023/06/15 00:28:07;;;;;;;3.92;3.45;;;;;12.70;94161.00;;;;7396809;19;20196;-79
2023/06/15 00:30:35;;;;;;;6.90;3.40;;;;;12.70;94157.00;;;;7394449;19;20128;-74
2023/06/15 00:33:09;;;;;;;3.78;3.20;;;;;12.80;94157.00;;;;7397425;19;20154;-76
2023/06/15 00:35:43;;;;;;;5.75;3.63;;;;;12.80;94156.00;;;;7396577;19;20469;-74
2023/06/15 00:38:17;;;;;;;4.35;3.40;;;;;12.80;94155.00;;;;7395579;19;20608;-75
2023/06/15 00:40:54;;;;;;;3.65;3.30;;;;;12.90;94157.00;;;;7395898;19;20922;-74
2023/06/15 00:43:28;;;;;;;4.00;3.30;;;;;12.90;94161.00;;;;7396281;19;20646;-76
2023/06/15 00:46:03;;;;;;;11.52;3.60;;;;;12.90;94161.00;;;;7394889;19;20196;-75
2023/06/15 00:48:31;;;;;;;4.28;3.25;;;;;13.00;94166.00;;;;7396379;19;20137;-77
2023/06/15 00:51:13;;;;;;;3.88;3.35;;;;;12.90;94165.00;;;;7395161;19;20162;-76
2023/06/15 00:53:43;;;;;;;4.05;3.47;;;;;12.90;94171.00;;;;7395740;19;20214;-75
2023/06/15 00:56:19;;;;;;;3.70;3.05;;;;;12.80;94166.00;;;;7395712;19;20163;-75
2023/06/15 00:58:53;;;;;;;6.05;3.80;;;;;12.90;94165.00;;;;7394561;19;20473;-77
2023/06/15 01:01:54;;;;;;;4.05;3.65;;;;;12.80;94159.00;;;;7397439;19;20136;-77
2023/06/15 01:04:30;;;;;;;8.45;3.75;;;;;12.70;94166.00;;;;7389773;19;20129;-79
2023/06/15 01:07:04;;;;;;;5.70;3.65;;;;;12.60;94154.00;;;;7396395;19;20798;-86
2023/06/15 01:09:41;;;;;;;5.07;3.72;;;;;12.50;94157.00;;;;7393888;19;20148;-82
2023/06/15 01:12:17;;;;;;;4.18;3.78;;;;;12.50;94158.00;;;;7395085;19;20144;-81
2023/06/15 01:14:51;;;;;;;6.80;3.58;;;;;12.30;94155.00;;;;7385924;19;20136;-85
2023/06/15 01:17:23;;;;;;;3.95;3.20;;;;;12.30;94149.00;;;;7392417;19;20140;-79
2023/06/15 01:20:05;;;;;;;4.82;3.95;;;;;12.20;94157.00;;;;7392888;19;20171;-81
2023/06/15 01:23:19;;;;;;;7.10;3.15;;;;;12.10;94152.00;;;;7394669;19;20204;-82
2023/06/15 01:26:01;;;;;;;3.88;3.10;;;;;11.90;94153.00;;;;7393328;19;20216;-82
2023/06/15 01:28:30;;;;;;;4.32;3.35;;;;;12.00;94155.00;;;;7392218;19;20480;-82
2023/06/15 01:31:04;;;;;;;4.60;3.58;;;;;11.90;94157.00;;;;7393630;19;20580;-81
2023/06/15 01:33:32;;;;;;;8.55;3.47;;;;;12.00;94145.00;;;;7399623;19;20156;-82
2023/06/15 01:36:06;;;;;;;7.70;3.70;;;;;11.90;94151.00;;;;7396269;19;20155;-81
2023/06/15 01:38:34;;;;;;;4.18;3.40;;;;;11.80;94155.00;;;;7402473;19;20664;-80
2023/06/15 01:41:09;;;;;;;3.83;3.50;;;;;11.80;94149.00;;;;7401354;19;20136;-84
2023/06/15 01:43:37;;;;;;;4.78;3.78;;;;;11.70;94156.00;;;;7401237;19;20148;-81
2023/06/15 01:46:13;;;;;;;4.77;3.57;;;;;11.80;94140.00;;;;7401076;19;20136;-79
2023/06/15 01:48:47;;;;;;;6.33;4.00;;;;;11.90;94149.00;;;;7401954;19;20167;-84
2023/06/15 01:51:24;;;;;;;3.88;3.45;;;;;11.90;94147.00;;;;7399379;19;20141;-83
2023/06/15 01:53:52;;;;;;;4.40;3.70;;;;;11.80;94150.00;;;;7400578;19;20152;-84
2023/06/15 01:56:26;;;;;;;8.25;3.70;;;;;11.80;94143.00;;;;7401573;19;20158;-83
2023/06/15 01:59:00;;;;;;;4.10;3.60;;;;;11.70;94143.00;;;;7402466;19;20133;-84
2023/06/15 02:01:34;;;;;;;5.28;4.18;;;;;11.70;94140.00;;;;7401872;19;20166;-84
2023/06/15 02:04:09;;;;;;;5.27;3.73;;;;;11.70;94131.00;;;;7398094;19;20144;-84
2023/06/15 02:06:43;;;;;;;5.27;4.13;;;;;11.50;94146.00;;;;7401860;19;20125;-85
2023/06/15 02:09:11;;;;;;;5.53;3.73;;;;;11.60;94142.00;;;;7398911;19;20140;-82
2023/06/15 02:11:46;;;;;;;4.67;4.10;;;;;11.50;94146.00;;;;7398064;19;20170;-83
2023/06/15 02:14:24;;;;;;;5.18;3.80;;;;;11.60;94142.00;;;;7402197;19;20137;-85
2023/06/15 02:16:52;;;;;;;6.90;3.53;;;;;11.60;94143.00;;;;7399462;19;20140;-84
2023/06/15 02:19:27;;;;;;;4.10;3.60;;;;;11.60;94144.00;;;;7401535;19;20136;-78
2023/06/15 02:21:57;;;;;;;5.23;3.50;;;;;11.60;94153.00;;;;7399796;19;20181;-78
2023/06/15 02:24:32;;;;;;;7.40;3.47;;;;;11.70;94149.00;;;;7396587;19;20476;-79
2023/06/15 02:27:06;;;;;;;5.40;3.57;;;;;11.60;94146.00;;;;7400230;19;20137;-79
2023/06/15 02:29:36;;;;;;;4.60;4.10;;;;;11.60;94145.00;;;;7399657;19;20633;-79
2023/06/15 02:32:25;;;;;;;3.97;3.50;;;;;11.70;94153.00;;;;7399406;19;20136;-79
2023/06/15 02:35:01;;;;;;;7.33;4.27;;;;;11.80;94149.00;;;;7397951;19;20148;-79
2023/06/15 02:37:29;;;;;;;8.50;3.97;;;;;11.80;94143.00;;;;7399295;19;20140;-79
2023/06/15 02:40:05;;;;;;;4.20;3.80;;;;;11.70;94152.00;;;;7400808;19;20464;-78
2023/06/15 02:42:40;;;;;;;4.40;3.88;;;;;11.40;94158.00;;;;7398747;19;20518;-76
2023/06/15 02:45:15;;;;;;;5.57;3.90;;;;;11.40;94157.00;;;;7398851;19;20136;-80
2023/06/15 02:47:43;;;;;;;7.67;4.23;;;;;11.50;94163.00;;;;7399241;19;20609;-79
2023/06/15 02:50:18;;;;;;;5.00;3.70;;;;;11.60;94158.00;;;;7398549;19;20140;-79
2023/06/15 02:52:55;;;;;;;5.63;4.20;;;;;11.70;94157.00;;;;7398567;19;20145;-79
2023/06/15 02:55:29;;;;;;;6.22;4.20;;;;;11.60;94160.00;;;;7399095;19;20148;-78
2023/06/15 02:57:57;;;;;;;4.97;4.07;;;;;11.60;94156.00;;;;7398337;19;20159;-79
2023/06/15 03:00:32;;;;;;;6.37;3.73;;;;;11.50;94158.00;;;;7397662;19;20473;-78
2023/06/15 03:03:07;;;;;;;7.33;3.83;;;;;11.40;94161.00;;;;7396985;19;20666;-79
2023/06/15 03:05:43;;;;;;;3.77;3.30;;;;;11.40;94158.00;;;;7398244;19;20608;-78
2023/06/15 03:08:12;;;;;;;5.03;3.83;;;;;11.40;94159.00;;;;7398014;19;20141;-77
2023/06/15 03:10:50;;;;;;;7.53;3.70;;;;;11.30;94163.00;;;;7396454;19;20544;-78
2023/06/15 03:13:18;;;;;;;5.07;3.50;;;;;11.30;94158.00;;;;7399116;19;20133;-77
2023/06/15 03:15:53;;;;;;;7.57;4.40;;;;;11.30;94168.00;;;;7398099;19;20132;-77
2023/06/15 03:18:21;;;;;;;5.57;3.70;;;;;11.30;94157.00;;;;7397748;19;20208;-77
2023/06/15 03:20:58;;;;;;;4.20;3.80;;;;;11.50;94156.00;;;;7398332;19;20599;-77
2023/06/15 03:23:26;;;;;;;7.57;4.00;;;;;11.60;94156.00;;;;7394637;19;20909;-77
2023/06/15 03:26:01;;;;;;;3.53;3.20;;;;;11.60;94156.00;;;;7393302;19;20144;-77
2023/06/15 03:28:38;;;;;;;5.00;3.90;;;;;11.50;94152.00;;;;7398900;19;20996;-77
2023/06/15 03:31:17;;;;;;;5.70;4.03;;;;;11.50;94155.00;;;;7396943;19;20490;-76
2023/06/15 03:33:52;;;;;;;6.20;3.90;;;;;11.50;94154.00;;;;7397121;19;20149;-77
2023/06/15 03:36:29;;;;;;;5.10;4.43;;;;;11.70;94155.00;;;;7399008;19;20128;-78
2023/06/15 03:39:04;;;;;;;4.63;3.77;;;;;11.90;94157.00;;;;7395858;19;20726;-76
2023/06/15 03:41:38;;;;;;;7.20;3.70;;;;;11.90;94166.00;;;;7396679;19;20147;-79
2023/06/15 03:44:06;;;;;;;7.07;3.53;;;;;12.10;94159.00;;;;7398006;19;20612;-77
2023/06/15 03:46:44;;;;;;;5.27;4.03;;;;;12.20;94167.00;;;;7396892;19;20128;-76
2023/06/15 03:49:14;;;;;;;5.00;3.63;;;;;12.20;94161.00;;;;7396131;19;20148;-76
2023/06/15 03:51:49;;;;;;;6.00;3.70;;;;;12.20;94169.00;;;;7396359;19;20642;-76
2023/06/15 03:54:19;;;;;;;4.47;3.80;;;;;12.40;94166.00;;;;7396926;19;20151;-76
2023/06/15 03:56:55;;;;;;;8.13;4.30;;;;;12.50;94171.00;;;;7394059;19;20145;-77
2023/06/15 03:59:31;;;;;;;5.50;3.50;;;;;12.60;94178.00;;;;7398485;19;20619;-77
2023/06/15 04:02:06;;;;;;;4.63;3.80;;;;;12.70;94178.00;;;;7395777;19;20182;-76
2023/06/15 04:04:47;;;;;;;5.57;3.77;;;;;12.70;94170.00;;;;7396627;19;20195;-76
2023/06/15 04:07:24;;;;;;;6.30;3.85;;;;;12.70;94176.00;;;;7396196;19;20224;-77
2023/06/15 04:09:59;;;;;;;5.55;3.58;;;;;12.60;94176.00;;;;7396067;19;20151;-76
2023/06/15 04:12:37;;;;;;;9.80;3.92;;;;;12.70;94183.00;;;;7395025;19;20224;-76
2023/06/15 04:15:06;;;;;;;4.18;3.78;;;;;12.70;94179.00;;;;7395225;19;20511;-76
2023/06/15 04:17:41;;;;;;;7.22;5.22;;;;;12.70;94182.00;;;;7398422;19;20144;-77
2023/06/15 04:20:16;;;;;;;5.28;3.63;;;;;12.80;94184.00;;;;7394928;19;20158;-77
2023/06/15 04:22:51;;;;;;;4.95;4.00;;;;;13.00;94187.00;;;;7393992;19;20136;-76
2023/06/15 04:25:28;;;;;;;7.07;4.00;;;;;13.00;94187.00;;;;7395261;19;20148;-77
2023/06/15 04:27:56;;;;;;;5.47;4.57;;;;;13.00;94192.00;;;;7397129;19;20613;-75
2023/06/15 04:30:32;;;;;;;5.05;4.00;;;;;13.10;94200.00;;;;7394949;19;20587;-76
2023/06/15 04:33:00;;;;;;;6.82;3.78;;;;;13.20;94201.00;;;;7395239;19;20210;-76
2023/06/15 04:35:35;;;;;;;5.85;3.90;;;;;13.30;94204.00;;;;7398026;19;21004;-76
2023/06/15 04:38:06;;;;;;;5.93;4.30;;;;;13.40;94204.00;;;;7396149;19;20478;-76
2023/06/15 04:40:42;;;;;;;5.07;3.85;;;;;13.50;94203.00;;;;7393949;19;20125;-82
2023/06/15 04:43:10;;;;;;;6.15;3.70;;;;;13.60;94206.00;;;;7397067;19;20600;-83
2023/06/15 04:45:45;;;;;;;4.47;3.65;;;;;13.60;94207.00;;;;7395251;19;20207;-82
2023/06/15 04:48:13;;;;;;;6.10;3.90;;;;;13.60;94204.00;;;;7395048;19;20158;-82
2023/06/15 04:50:48;;;;;;;4.90;4.40;;;;;13.50;94198.00;;;;7395236;19;20511;-81
2023/06/15 04:53:19;;;;;;;4.57;4.00;;;;;13.40;94195.00;;;;7395571;19;20556;-83
2023/06/15 04:55:54;;;;;;;4.88;3.72;;;;;13.30;94210.00;;;;7395508;19;20133;-82
2023/06/15 04:58:21;;;;;;;6.18;4.13;;;;;13.40;94206.00;;;;7394974;19;20133;-82
2023/06/15 05:00:56;;;;;;;5.45;3.85;;;;;13.50;94206.00;;;;7395275;19;20459;-83
2023/06/15 05:03:32;;;;;;;5.03;4.03;;;;;13.50;94212.00;;;;7392296;19;20231;-82
2023/06/15 05:06:07;;;;;;;3.90;3.60;;;;;13.50;94214.00;;;;7396341;19;20125;-82
2023/06/15 05:08:35;;;;;;;4.65;4.05;;;;;13.40;94215.00;;;;7404809;19;20222;-84
2023/06/15 05:11:12;;;;;;;6.97;3.92;;;;;13.40;94225.00;;;;7407415;19;20158;-82
2023/06/15 05:13:40;;;;;;;5.47;4.03;;;;;13.40;94227.00;;;;7410740;19;20139;-83
2023/06/15 05:16:15;;;;;;;4.57;4.00;;;;;13.30;94226.00;;;;7409250;19;20158;-83
2023/06/15 05:18:42;;;;;;;4.00;3.60;;;;;13.30;94218.00;;;;7408701;19;20473;-82
2023/06/15 05:21:17;;;;;;;7.65;3.78;;;;;13.20;94217.00;;;;7408015;19;20643;-84
2023/06/15 05:23:45;;;;;;;6.95;5.53;;;;;13.20;94214.00;;;;7404513;19;20160;-82
2023/06/15 05:26:20;;;;;;;8.25;6.50;;;;;13.20;94220.00;;;;7408433;19;20571;-82
2023/06/15 05:28:57;;;;;;;13.65;6.78;;;;;13.30;94225.00;;;;7409421;19;20585;-83
2023/06/15 05:31:32;;;;;;;5.88;4.93;;;;;13.20;94229.00;;;;7405131;19;21439;-83
2023/06/15 05:34:06;;;;;;;5.18;4.50;;;;;13.30;94228.00;;;;7406158;19;20148;-81
2023/06/15 05:36:40;;;;;;;5.03;3.95;;;;;13.60;94217.00;;;;7407919;19;20746;-82
2023/06/15 05:39:25;;;;;;;6.85;4.20;;;;;14.20;94223.00;;;;7409395;19;20132;-83
2023/06/15 05:41:53;;;;;;;6.72;4.20;;;;;14.80;94218.00;;;;7406491;19;20148;-83
2023/06/15 05:44:27;;;;;;;5.70;4.22;;;;;15.40;94220.00;;;;7405748;19;20140;-83
2023/06/15 05:47:01;;;;;;;4.45;4.05;;;;;15.90;94218.00;;;;7407092;19;20148;-85
2023/06/15 05:49:37;;;;;;;5.90;4.18;;;;;16.20;94221.00;;;;7407494;19;20652;-78
2023/06/15 05:52:07;;;;;;;5.10;3.90;;;;;16.40;94221.00;;;;7406299;19;20186;-77
2023/06/15 05:54:43;;;;;;;5.10;4.13;;;;;16.60;94218.00;;;;7407471;19;20767;-77
2023/06/15 05:57:19;;;;;;;4.80;4.38;;;;;17.20;94228.00;;;;7406339;19;20144;-78
2023/06/15 05:59:55;;;;;;;5.70;4.35;;;;;17.50;94220.00;;;;7406911;19;20150;-75
2023/06/15 06:02:30;;;;;;;4.60;3.58;;;;;17.80;94227.00;;;;7407374;19;20140;-76
2023/06/15 06:05:12;;;;;;;4.43;3.90;;;;;18.70;94228.00;;;;7406634;19;20144;-77
2023/06/15 06:07:39;;;;;;;4.15;3.75;;;;;19.10;94227.00;;;;7406481;19;20143;-76
2023/06/15 06:10:18;;;;;;;6.40;3.88;;;;;18.90;94231.00;;;;7407450;19;20555;-76
2023/06/15 06:12:55;;;;;;;4.07;3.67;;;;;18.90;94232.00;;;;7404908;19;20140;-76
2023/06/15 06:15:31;;;;;;;7.35;4.35;;;;;18.40;94232.00;;;;7406181;19;20754;-76
2023/06/15 06:18:07;;;;;;;3.80;3.50;;;;;18.40;94243.00;;;;7406173;19;20175;-77
2023/06/15 06:20:36;;;;;;;5.05;4.03;;;;;19.00;94239.00;;;;7399027;19;20153;-76
2023/06/15 06:23:10;;;;;;;4.55;3.67;;;;;19.50;94242.00;;;;7396510;19;20636;-76
2023/06/15 06:25:44;;;;;;;8.38;3.95;;;;;19.40;94242.00;;;;7399739;19;20137;-76
2023/06/15 06:28:20;;;;;;;4.00;3.60;;;;;19.40;94235.00;;;;7401605;19;20593;-77
2023/06/15 06:30:55;;;;;;;4.93;3.83;;;;;20.10;94234.00;;;;7399763;19;20499;-76
2023/06/15 06:33:29;;;;;;;4.85;3.67;;;;;21.00;94230.00;;;;7397484;19;20597;-76
2023/06/15 06:36:08;;;;;;;4.30;3.90;;;;;21.10;94234.00;;;;7400246;19;20148;-76
2023/06/15 06:38:42;;;;;;;5.13;3.63;;;;;21.30;94242.00;;;;7399020;19;20140;-73
2023/06/15 06:41:30;;;;;;;5.43;3.90;;;;;21.20;94242.00;;;;7398866;19;20140;-75
2023/06/15 06:44:05;;;;;;;4.32;3.60;;;;;21.50;94242.00;;;;7397791;19;20137;-75
2023/06/15 06:46:33;;;;;;;4.82;3.80;;;;;22.10;94242.00;;;;7399268;19;20175;-75
2023/06/15 06:49:08;;;;;;;4.43;3.53;;;;;22.30;94245.00;;;;7400261;19;20514;-76
2023/06/15 06:51:37;;;;;;;5.53;4.32;;;;;22.00;94241.00;;;;7397668;19;20170;-76
2023/06/15 06:54:11;;;;;;;4.95;3.70;;;;;22.40;94249.00;;;;7398715;19;20624;-76
2023/06/15 06:56:55;;;;;;;6.15;3.83;;;;;22.60;94257.00;;;;7396427;19;20141;-75
2023/06/15 06:59:37;;;;;;;6.15;4.20;;;;;22.30;94257.00;;;;7397342;19;20136;-77
2023/06/15 07:02:12;;;;;;;4.30;3.85;;;;;22.40;94257.00;;;;7397238;19;20215;-76
2023/06/15 07:04:53;;;;;;;7.00;4.00;;;;;22.30;94268.00;;;;7396381;19;20628;-76
2023/06/15 07:07:21;;;;;;;4.10;3.78;;;;;21.70;94262.00;;;;7398257;19;20162;-75
2023/06/15 07:09:55;;;;;;;6.10;4.22;;;;;21.80;94264.00;;;;7397157;19;20152;-76
2023/06/15 07:12:23;;;;;;;3.95;3.65;;;;;21.50;94274.00;;;;7397348;19;20636;-77
2023/06/15 07:14:57;;;;;;;6.20;4.10;;;;;21.50;94276.00;;;;7397676;19;20630;-76
2023/06/15 07:17:26;;;;;;;6.43;4.25;;;;;21.30;94268.00;;;;7398339;19;20125;-77
2023/06/15 07:20:01;;;;;;;7.72;3.70;;;;;21.20;94264.00;;;;7397964;19;20482;-76
2023/06/15 07:22:36;;;;;;;5.68;4.38;;;;;21.10;94274.00;;;;7395468;19;20596;-77
2023/06/15 07:25:10;;;;;;;5.30;3.97;;;;;21.10;94271.00;;;;7396699;19;20247;-76
2023/06/15 07:27:45;;;;;;;4.95;4.03;;;;;20.80;94270.00;;;;7397959;19;20135;-77
2023/06/15 07:30:13;;;;;;;4.57;4.18;;;;;21.00;94278.00;;;;7397139;19;20175;-77
2023/06/15 07:32:48;;;;;;;6.10;4.18;;;;;21.00;94272.00;;;;7395552;19;20144;-76
2023/06/15 07:35:18;;;;;;;4.80;4.30;;;;;21.20;94272.00;;;;7397781;19;20609;-77
2023/06/15 07:37:53;;;;;;;4.28;3.88;;;;;21.20;94270.00;;;;7397426;19;20152;-79
2023/06/15 07:40:23;;;;;;;4.38;3.95;;;;;21.40;94280.00;;;;7395471;19;20152;-77
2023/06/15 07:42:59;;;;;;;7.68;4.03;;;;;21.80;94270.00;;;;7398609;19;20153;-78
2023/06/15 07:45:27;;;;;;;8.60;4.28;;;;;21.60;94275.00;;;;7396638;19;20643;-76
2023/06/15 07:48:02;;;;;;;4.90;4.07;;;;;21.80;94276.00;;;;7396658;19;20143;-77
2023/06/15 07:50:39;;;;;;;6.93;4.10;;;;;21.90;94273.00;;;;7396242;19;20608;-77
2023/06/15 07:53:14;;;;;;;7.65;4.13;;;;;21.90;94274.00;;;;7395926;19;20174;-78
2023/06/15 07:55:48;;;;;;;4.70;3.75;;;;;22.00;94275.00;;;;7396476;19;20140;-78
2023/06/15 07:58:22;;;;;;;5.22;4.25;;;;;22.20;94273.00;;;;7396483;19;20144;-77
2023/06/15 08:00:56;;;;;;;8.13;4.38;;;;;22.10;94273.00;;;;7396665;19;20613;-77
2023/06/15 08:03:24;;;;;;;7.65;4.30;;;;;22.50;94269.00;;;;7394398;19;20184;-77
2023/06/15 08:05:58;;;;;;;7.60;3.90;;;;;22.90;94279.00;;;;7395849;19;20144;-78
2023/06/15 08:08:26;;;;;;;4.55;3.90;;;;;22.90;94276.00;;;;7398300;19;20600;-75
2023/06/15 08:11:07;;;;;;;4.55;4.15;;;;;22.60;94265.00;;;;7395334;19;20141;-78
2023/06/15 08:13:37;;;;;;;5.78;3.75;;;;;23.10;94262.00;;;;7394508;19;20146;-76
2023/06/15 08:16:11;;;;;;;4.13;3.58;;;;;23.10;94268.00;;;;7395924;19;20144;-77
2023/06/15 08:18:47;;;;;;;6.50;3.95;;;;;23.10;94273.00;;;;7395895;19;20151;-74
2023/06/15 08:21:17;;;;;;;8.18;3.92;;;;;23.90;94273.00;;;;7394829;19;20148;-74
2023/06/15 08:23:50;;;;;;;7.70;4.00;;;;;23.30;94275.00;;;;7395002;19;20603;-76
2023/06/15 08:26:18;;;;;;;4.65;3.92;;;;;23.90;94270.00;;;;7396326;19;20605;-74
2023/06/15 08:28:46;;;;;;;7.38;3.80;;;;;24.00;94270.00;;;;7394746;19;20137;-74
2023/06/15 08:31:28;;;;;;;6.75;3.78;;;;;24.10;94271.00;;;;7395448;19;20616;-75
2023/06/15 08:34:07;;;;;;;5.22;3.30;;;;;24.20;94279.00;;;;7394457;19;20132;-76
2023/06/15 08:36:41;;;;;;;4.50;4.00;;;;;24.30;94275.00;;;;7394325;19;20502;-76
2023/06/15 08:39:16;;;;;;;5.13;3.63;;;;;24.50;94274.00;;;;7394752;19;20183;-78
2023/06/15 08:41:48;;;;;;;6.78;3.83;;;;;24.50;94280.00;;;;7394351;19;20158;-77
2023/06/15 08:44:22;;;;;;;4.78;3.80;;;;;25.10;94273.00;;;;7395549;19;20148;-76
2023/06/15 08:46:51;;;;;;;5.60;3.78;;;;;25.20;94271.00;;;;7394171;19;20137;-76
2023/06/15 08:49:27;;;;;;;4.35;3.85;;;;;25.20;94275.00;;;;7395902;19;20674;-83
2023/06/15 08:52:02;;;;;;;4.80;3.80;;;;;25.20;94275.00;;;;7395669;19;20132;-75
2023/06/15 08:54:41;;;;;;;4.40;3.88;;;;;25.60;94280.00;;;;7393719;19;20719;-75
2023/06/15 08:57:15;;;;;;;6.28;3.55;;;;;24.80;94278.00;;;;7394626;19;20535;-76
2023/06/15 08:59:50;;;;;;;5.57;4.03;;;;;24.90;94271.00;;;;7397716;19;20658;-75
2023/06/15 09:02:26;;;;;;;3.92;3.53;;;;;25.40;94271.00;;;;7394999;19;20151;-76
2023/06/15 09:05:07;;;;;;;4.78;3.72;;;;;25.50;94274.00;;;;7392950;19;20555;-77
2023/06/15 09:07:43;;;;;;;5.32;3.70;;;;;25.10;94274.00;;;;7396413;19;20142;-77
2023/06/15 09:10:19;;;;;;;5.20;3.88;;;;;25.50;94273.00;;;;7394539;19;20149;-79
2023/06/15 09:12:53;;;;;;;6.78;3.83;;;;;25.90;94277.00;;;;7395026;19;20220;-80
2023/06/15 09:15:30;;;;;;;4.72;3.33;;;;;25.60;94279.00;;;;7393365;19;20600;-78
2023/06/15 09:18:00;;;;;;;3.90;3.50;;;;;26.50;94269.00;;;;7396491;19;20168;-78
2023/06/15 09:20:39;;;;;;;4.88;3.42;;;;;25.60;94300.00;;;;7393310;19;20133;-78
2023/06/15 09:23:15;;;;;;;6.03;4.53;;;;;24.00;94316.00;;;;7390715;19;20530;-80
2023/06/15 09:25:52;;;;;;;8.75;4.20;;;;;22.70;94319.00;;;;7394732;19;20216;-79
2023/06/15 09:28:31;;;;;;;7.30;3.80;;;;;22.10;94321.00;;;;7395089;19;20141;-78
2023/06/15 09:30:59;;;;;;;5.80;3.83;;;;;22.00;94307.00;;;;7392906;19;20174;-78
2023/06/15 09:33:34;;;;;;;4.95;3.65;;;;;22.60;94281.00;;;;7392902;19;20458;-79
2023/06/15 09:36:05;;;;;;;3.90;3.50;;;;;23.30;94309.00;;;;7393902;19;20137;-77
2023/06/15 09:38:45;;;;;;;8.20;3.83;;;;;23.10;94312.00;;;;7392449;19;20148;-78
2023/06/15 09:41:20;;;;;;;4.50;3.85;;;;;22.40;94315.00;;;;7395171;19;20763;-78
2023/06/15 09:43:49;;;;;;;6.00;3.67;;;;;22.10;94316.00;;;;7395897;19;20141;-79
2023/06/15 09:46:28;;;;;;;4.07;3.28;;;;;21.90;94310.00;;;;7392777;19;20561;-78
2023/06/15 09:48:55;;;;;;;9.02;3.60;;;;;21.60;94320.00;;;;7392979;19;20627;-78
2023/06/15 09:51:35;;;;;;;24.17;3.88;;;;;21.70;94310.00;;;;7393119;19;20151;-78
2023/06/15 09:54:03;;;;;;;4.03;3.63;;;;;22.20;94256.00;;;;7391634;19;20129;-78
2023/06/15 09:56:38;;;;;;;5.05;3.95;;;;;25.00;94256.00;;;;7399437;19;20625;-77
2023/06/15 09:59:06;;;;;;;4.55;3.40;;;;;26.80;94262.00;;;;7402824;19;20507;-81
2023/06/15 10:01:45;;;;;;;8.02;3.80;;;;;27.40;94264.00;;;;7399901;19;20453;-78
2023/06/15 10:04:24;;;;;;;5.03;3.45;;;;;28.20;94262.00;;;;7398815;19;20885;-77
2023/06/15 10:07:02;;;;;;;5.63;3.40;;;;;28.80;94262.00;;;;7399831;19;20200;-77
2023/06/15 10:09:44;;;;;;;3.58;3.28;;;;;28.70;94263.00;;;;7400111;19;20608;-75
2023/06/15 10:12:27;;;;;;;3.53;3.22;;;;;29.60;94257.00;;;;7400209;19;20170;-76
2023/06/15 10:15:12;;;;;;;5.93;3.67;;;;;30.50;94261.00;;;;7398816;19;20152;-76
2023/06/15 10:17:46;;;;;;;3.92;3.53;;;;;30.20;94265.00;;;;7399518;19;20527;-76
2023/06/15 10:20:24;;;;;;;3.95;3.50;;;;;30.40;94265.00;;;;7399780;19;20140;-76
2023/06/15 10:23:08;;;;;;;4.80;3.67;;;;;30.50;94262.00;;;;7398205;19;20520;-77
2023/06/15 10:25:46;;;;;;;4.10;3.70;;;;;30.40;94266.00;;;;7401068;19;20132;-75
2023/06/15 10:28:23;;;;;;;10.15;3.58;;;;;31.50;94266.00;;;;7401081;19;20491;-77
2023/06/15 10:31:02;;;;;;;5.25;3.80;;;;;30.50;94306.00;;;;7401319;19;20588;-76
2023/06/15 10:33:52;;;;;;;4.75;3.50;;;;;27.70;94323.00;;;;7399589;19;20124;-77
2023/06/15 10:36:25;;;;;;;3.83;3.53;;;;;25.30;94315.00;;;;7399966;19;20124;-77
2023/06/15 10:39:17;;;;;;;7.10;3.35;;;;;26.30;94277.00;;;;7400758;19;20608;-77
2023/06/15 10:41:45;;;;;;;5.25;3.55;;;;;28.00;94308.00;;;;7399157;19;20208;-76
2023/06/15 10:44:20;;;;;;;3.92;3.53;;;;;26.50;94292.00;;;;7399089;19;20207;-75
2023/06/15 10:47:09;;;;;;;6.13;3.60;;;;;25.60;94322.00;;;;7398304;19;20971;-77
2023/06/15 10:49:52;;;;;;;4.25;3.60;;;;;24.20;94326.00;;;;7396863;19;20162;-77
2023/06/15 10:52:20;;;;;;;10.95;3.63;;;;;24.00;94332.00;;;;7400674;19;20573;-75
2023/06/15 10:54:58;;;;;;;7.15;3.75;;;;;24.00;94335.00;;;;7396493;19;20144;-75
2023/06/15 10:57:35;;;;;;;4.43;3.63;;;;;24.00;94333.00;;;;7397110;19;20148;-76
2023/06/15 11:00:11;;;;;;;4.20;3.70;;;;;24.20;94287.00;;;;7399045;19;20208;-77
2023/06/15 11:03:02;;;;;;;3.95;3.60;;;;;26.00;94283.00;;;;7397648;19;20205;-76
2023/06/15 11:05:43;;;;;;;3.95;3.45;;;;;27.10;94291.00;;;;7399485;19;20672;-75
2023/06/15 11:08:19;;;;;;;4.60;3.58;;;;;27.60;94281.00;;;;7399749;19;20244;-75
2023/06/15 11:10:54;;;;;;;4.93;3.75;;;;;28.60;94278.00;;;;7396859;19;20604;-75
2023/06/15 11:13:29;;;;;;;5.35;3.67;;;;;28.40;94276.00;;;;7398736;19;20200;-75
2023/06/15 11:16:07;;;;;;;8.40;3.53;;;;;28.70;94281.00;;;;7397692;19;20152;-75
2023/06/15 11:18:56;;;;;;;4.00;3.42;;;;;29.70;94269.00;;;;7397574;19;20240;-75
2023/06/15 11:21:30;;;;;;;3.67;3.25;;;;;30.00;94266.00;;;;7396047;19;20148;-77
2023/06/15 11:24:05;;;;;;;4.55;3.20;;;;;30.70;94265.00;;;;7395937;19;20508;-76
2023/06/15 11:26:38;;;;;;;3.97;3.38;;;;;30.40;94275.00;;;;7398962;19;20129;-77
2023/06/15 11:29:17;;;;;;;4.95;3.30;;;;;30.10;94288.00;;;;7398380;19;20196;-78
2023/06/15 11:31:51;;;;;;;4.43;3.47;;;;;28.10;94316.00;;;;7397786;19;20203;-78
2023/06/15 11:34:20;;;;;;;4.65;3.17;;;;;26.80;94317.00;;;;7396732;19;20213;-78
2023/06/15 11:36:58;;;;;;;4.95;3.70;;;;;25.80;94326.00;;;;7397603;19;20611;-78
2023/06/15 11:39:28;;;;;;;5.45;3.33;;;;;24.70;94336.00;;;;7396148;19;20136;-77
2023/06/15 11:42:04;;;;;;;7.05;3.70;;;;;24.60;94331.00;;;;7398491;19;20544;-77
2023/06/15 11:44:41;;;;;;;5.85;3.30;;;;;24.90;94278.00;;;;7396883;19;20148;-77
2023/06/15 11:47:16;;;;;;;5.65;3.33;;;;;26.80;94267.00;;;;7397303;19;20124;-78
2023/06/15 11:49:46;;;;;;;3.92;3.33;;;;;25.70;94266.00;;;;7398757;19;20148;-76
2023/06/15 11:52:23;;;;;;;6.50;3.35;;;;;27.70;94262.00;;;;7398030;19;20496;-77
2023/06/15 11:54:50;;;;;;;4.20;3.35;;;;;28.80;94257.00;;;;7395160;19;20145;-77
2023/06/15 11:57:25;;;;;;;4.45;3.42;;;;;30.30;94245.00;;;;7398774;19;20151;-78
2023/06/15 11:59:54;;;;;;;5.53;3.30;;;;;30.40;94251.00;;;;7397007;19;20171;-76
2023/06/15 12:02:31;;;;;;;4.88;3.42;;;;;31.30;94245.00;;;;7394694;19;20647;-77
2023/06/15 12:05:05;;;;;;;3.60;3.30;;;;;31.10;94274.00;;;;7397277;19;20147;-77
2023/06/15 12:07:40;;;;;;;3.60;3.20;;;;;29.50;94311.00;;;;7396552;19;20148;-77
2023/06/15 12:10:17;;;;;;;3.80;3.40;;;;;27.90;94312.00;;;;7395327;19;20139;-78
2023/06/15 12:13:00;;;;;;;7.63;3.42;;;;;28.10;94250.00;;;;7397354;19;20136;-78
2023/06/15 12:15:45;;;;;;;3.85;3.38;;;;;29.90;94256.00;;;;7397607;19;20560;-77
2023/06/15 12:18:15;;;;;;;4.40;3.60;;;;;30.00;94255.00;;;;7393824;19;20132;-77
2023/06/15 12:20:50;;;;;;;3.67;3.38;;;;;30.50;94251.00;;;;7394628;19;20165;-78
2023/06/15 12:23:31;;;;;;;4.13;3.35;;;;;28.10;94315.00;;;;7395152;19;20136;-77
2023/06/15 12:26:05;;;;;;;7.68;3.85;;;;;26.40;94316.00;;;;7395630;19;20144;-77
2023/06/15 12:28:35;;;;;;;4.07;3.70;;;;;26.10;94304.00;;;;7394842;19;20660;-78
2023/06/15 12:31:11;;;;;;;3.40;3.10;;;;;25.20;94303.00;;;;7395447;19;20590;-77
2023/06/15 12:33:39;;;;;;;4.80;3.38;;;;;25.00;94241.00;;;;7396704;19;20153;-77
2023/06/15 12:36:14;;;;;;;5.32;3.55;;;;;27.20;94244.00;;;;7393988;19;20166;-78
2023/06/15 12:38:42;;;;;;;3.70;3.40;;;;;29.00;94236.00;;;;7396411;19;20164;-77
2023/06/15 12:41:18;;;;;;;3.97;3.35;;;;;28.70;94238.00;;;;7390904;19;20128;-81
2023/06/15 12:43:45;;;;;;;8.15;3.30;;;;;28.10;94242.00;;;;7390268;19;20154;-78
2023/06/15 12:46:20;;;;;;;4.90;3.05;;;;;29.20;94238.00;;;;7390053;19;20245;-75
2023/06/15 12:48:48;;;;;;;4.18;3.30;;;;;29.90;94236.00;;;;7392384;19;20139;-78
2023/06/15 12:51:22;;;;;;;6.45;3.00;;;;;29.60;94235.00;;;;7389996;19;20143;-75
2023/06/15 12:53:49;;;;;;;3.28;2.90;;;;;28.30;94231.00;;;;7389928;19;20144;-76